Time;durP1;ratioP1;P1;durP2;ratioP2;P2;SDS_P1;SDS_P2;PMS_P1;PMS_P2;Temp;Humidity;BMP_temperature;BMP_pressure;BME280_temperature;BME280_humidity;BME280_pressure;Samples;Min_cycle;Max_cycle;Signal;HPM_P1;HPM_P2
2022/04/29 00:00:51;;;;;;;11.48;4.47;;;;;;;8.69;73.14;103224.88;5007757;28;20022;-64
2022/04/29 00:03:17;;;;;;;7.35;4.28;;;;;;;8.72;73.02;103224.91;5007962;28;20816;-63
2022/04/29 00:05:43;;;;;;;13.75;4.47;;;;;;;8.65;73.00;103226.59;5008001;28;20029;-62
2022/04/29 00:08:10;;;;;;;7.13;3.97;;;;;;;8.53;73.40;103224.66;5006386;28;20038;-62
2022/04/29 00:10:36;;;;;;;8.90;4.20;;;;;;;8.66;73.10;103222.22;5007310;28;20029;-62
2022/04/29 00:13:04;;;;;;;10.43;4.07;;;;;;;8.71;72.70;103216.16;5008024;28;20029;-62
2022/04/29 00:15:29;;;;;;;9.32;4.25;;;;;;;8.66;72.87;103207.34;5006133;28;20030;-62
2022/04/29 00:17:55;;;;;;;15.95;4.85;;;;;;;8.42;73.74;103198.25;5008088;28;20449;-62
2022/04/29 00:20:20;;;;;;;8.82;5.03;;;;;;;8.49;73.32;103214.94;4990470;28;20021;-63
2022/04/29 00:22:46;;;;;;;12.07;4.03;;;;;;;8.54;73.07;103205.44;5007595;28;20489;-63
2022/04/29 00:25:12;;;;;;;14.07;4.40;;;;;;;8.37;73.93;103201.66;4990499;28;20053;-63
2022/04/29 00:27:39;;;;;;;16.63;4.75;;;;;;;8.37;73.55;103204.31;5006373;28;20050;-63
2022/04/29 00:30:06;;;;;;;13.93;4.43;;;;;;;8.47;73.34;103199.19;5007158;28;20397;-63
2022/04/29 00:32:32;;;;;;;9.55;4.70;;;;;;;8.38;73.60;103179.78;5007229;28;20026;-62
2022/04/29 00:34:57;;;;;;;13.82;4.68;;;;;;;8.46;73.30;103183.41;5007396;28;20519;-63
2022/04/29 00:37:22;;;;;;;10.07;4.35;;;;;;;8.39;73.69;103176.28;5006157;28;20034;-63
2022/04/29 00:39:48;;;;;;;9.38;4.80;;;;;;;8.36;74.12;103181.53;5008115;28;20029;-62
2022/04/29 00:42:18;;;;;;;15.63;4.65;;;;;;;8.33;74.05;103188.50;5007372;28;20072;-62
2022/04/29 00:44:44;;;;;;;12.52;4.85;;;;;;;8.24;74.03;103187.50;4987375;28;20034;-62
2022/04/29 00:47:17;;;;;;;12.98;4.63;;;;;;;8.29;73.59;103183.16;4987352;28;20246;-62
2022/04/29 00:49:42;;;;;;;17.33;5.78;;;;;;;8.25;74.06;103174.34;4988088;28;20085;-62
2022/04/29 00:52:13;;;;;;;13.40;5.18;;;;;;;8.13;74.35;103180.31;4988101;28;20026;-62
2022/04/29 00:54:41;;;;;;;12.48;5.57;;;;;;;8.21;74.93;103178.69;4989234;28;20037;-65
2022/04/29 00:57:23;;;;;;;14.85;4.60;;;;;;;8.38;73.84;103182.41;5007504;28;20389;-63
2022/04/29 01:00:02;;;;;;;13.43;4.85;;;;;;;8.26;73.91;103186.66;5006373;28;20096;-62
2022/04/29 01:02:28;;;;;;;14.45;5.32;;;;;;;8.36;74.21;103178.91;5007331;28;20025;-62
2022/04/29 01:05:05;;;;;;;10.70;5.00;;;;;;;8.30;74.09;103171.78;5007552;28;20040;-62
2022/04/29 01:07:31;;;;;;;19.63;5.75;;;;;;;8.29;74.02;103181.44;5006562;28;20030;-62
2022/04/29 01:09:56;;;;;;;14.43;5.60;;;;;;;8.28;74.41;103169.16;5003611;23;20061;-62
2022/04/29 01:12:24;;;;;;;14.32;5.80;;;;;;;8.15;74.57;103161.97;5006710;28;20030;-63
2022/04/29 01:14:49;;;;;;;10.50;5.28;;;;;;;8.16;74.62;103161.97;4990050;28;20029;-62
2022/04/29 01:17:15;;;;;;;12.90;5.10;;;;;;;8.07;74.71;103161.88;5007764;28;20105;-62
2022/04/29 01:19:40;;;;;;;9.13;5.10;;;;;;;8.26;74.25;103160.38;5006789;28;20351;-61
2022/04/29 01:22:07;;;;;;;15.38;6.00;;;;;;;8.26;74.27;103170.88;4991324;28;20472;-62
2022/04/29 01:24:32;;;;;;;14.98;5.82;;;;;;;8.30;74.31;103175.31;5006509;28;20040;-63
2022/04/29 01:26:58;;;;;;;13.38;5.90;;;;;;;8.24;74.21;103166.50;5007108;28;20025;-63
2022/04/29 01:29:24;;;;;;;11.73;6.03;;;;;;;8.18;74.60;103152.41;5006741;28;20030;-61
2022/04/29 01:31:50;;;;;;;12.93;5.90;;;;;;;8.19;74.57;103153.28;4988933;28;20045;-61
2022/04/29 01:34:16;;;;;;;16.65;6.28;;;;;;;8.26;74.58;103149.88;5007838;28;20034;-63
2022/04/29 01:36:41;;;;;;;10.43;6.18;;;;;;;8.17;74.74;103144.50;5005999;28;20026;-62
2022/04/29 01:39:07;;;;;;;14.07;5.70;;;;;;;8.26;74.29;103154.22;5007625;28;20033;-62
2022/04/29 01:41:35;;;;;;;11.88;5.85;;;;;;;8.22;74.69;103155.97;4988858;28;20053;-63
2022/04/29 01:44:00;;;;;;;19.23;6.32;;;;;;;8.18;74.77;103167.25;5004426;28;20057;-61
2022/04/29 01:46:26;;;;;;;11.23;5.70;;;;;;;8.37;73.85;103167.53;5006981;28;20126;-62
2022/04/29 01:48:51;;;;;;;15.27;6.63;;;;;;;8.20;74.50;103168.19;5006009;28;20033;-64
2022/04/29 01:51:17;;;;;;;13.98;6.32;;;;;;;8.14;74.59;103154.94;5007454;28;20110;-61
2022/04/29 01:53:42;;;;;;;10.68;5.65;;;;;;;8.21;74.26;103162.94;4988645;28;20041;-63
2022/04/29 01:56:07;;;;;;;9.38;5.47;;;;;;;8.16;74.33;103148.00;5005444;28;20034;-63
2022/04/29 01:58:33;;;;;;;14.05;6.22;;;;;;;8.13;74.97;103158.44;5004892;28;20066;-63
2022/04/29 02:00:58;;;;;;;11.35;5.30;;;;;;;8.15;74.68;103143.56;5005146;28;20480;-64
2022/04/29 02:03:24;;;;;;;13.27;5.60;;;;;;;8.20;74.39;103131.41;5005015;28;20472;-62
2022/04/29 02:05:49;;;;;;;10.60;5.85;;;;;;;8.19;74.67;103133.13;5006457;28;20026;-61
2022/04/29 02:08:14;;;;;;;9.23;6.43;;;;;;;7.97;75.06;103132.84;5004765;28;20021;-62
2022/04/29 02:10:40;;;;;;;14.43;6.57;;;;;;;7.81;75.81;103134.38;5019444;28;20093;-61
2022/04/29 02:13:05;;;;;;;13.10;6.80;;;;;;;7.99;75.54;103125.00;5026520;28;20025;-62
2022/04/29 02:15:30;;;;;;;14.38;6.55;;;;;;;8.08;74.93;103130.41;5024575;28;20034;-62
2022/04/29 02:17:56;;;;;;;16.40;5.85;;;;;;;8.17;74.93;103132.25;5026395;28;20026;-62
2022/04/29 02:20:21;;;;;;;12.85;6.50;;;;;;;8.11;74.86;103139.16;5025322;28;20030;-62
2022/04/29 02:22:47;;;;;;;16.77;7.03;;;;;;;8.12;74.90;103141.81;5009285;28;20468;-62
2022/04/29 02:25:12;;;;;;;15.05;7.07;;;;;;;8.16;75.06;103140.97;5026581;28;20025;-61
2022/04/29 02:27:39;;;;;;;12.23;6.60;;;;;;;8.17;75.21;103145.38;5000141;28;20037;-63
2022/04/29 02:30:05;;;;;;;15.45;6.72;;;;;;;8.05;75.22;103151.34;5006016;28;20026;-62
2022/04/29 02:32:31;;;;;;;17.13;6.95;;;;;;;8.07;75.05;103152.22;5007351;28;20473;-63
2022/04/29 02:34:58;;;;;;;20.95;7.45;;;;;;;7.96;75.84;103138.97;4992404;28;20468;-63
2022/04/29 02:37:23;;;;;;;12.80;6.15;;;;;;;8.09;75.16;103132.16;5010070;28;20022;-62
2022/04/29 02:39:48;;;;;;;23.00;6.93;;;;;;;8.03;74.95;103139.94;5017617;28;20092;-64
2022/04/29 02:42:14;;;;;;;15.98;6.80;;;;;;;8.09;74.94;103147.91;5010525;28;20033;-62
2022/04/29 02:44:39;;;;;;;15.55;5.97;;;;;;;8.12;74.57;103135.69;5025960;28;20515;-63
2022/04/29 02:47:08;;;;;;;14.20;6.60;;;;;;;8.00;75.54;103139.03;5011161;28;20026;-63
2022/04/29 02:49:38;;;;;;;10.68;6.40;;;;;;;8.09;75.01;103140.03;5022362;28;20029;-63
2022/04/29 02:52:04;;;;;;;12.82;6.85;;;;;;;8.05;75.37;103142.59;5008490;28;20071;-62
2022/04/29 02:54:30;;;;;;;13.57;6.38;;;;;;;8.11;74.62;103134.78;5008889;28;20034;-63
2022/04/29 02:56:55;;;;;;;15.77;6.13;;;;;;;8.01;74.90;103132.91;5007803;28;20037;-61
2022/04/29 02:59:21;;;;;;;13.80;6.38;;;;;;;8.00;75.13;103132.00;5017290;28;20033;-64
2022/04/29 03:01:47;;;;;;;19.10;7.57;;;;;;;8.06;75.02;103126.84;5029340;28;20094;-61
2022/04/29 03:04:12;;;;;;;15.73;6.72;;;;;;;8.04;75.14;103123.31;5028547;28;20026;-61
2022/04/29 03:06:38;;;;;;;17.95;7.15;;;;;;;8.08;75.03;103119.88;5028064;28;20030;-61
2022/04/29 03:09:04;;;;;;;16.67;7.20;;;;;;;8.11;75.16;103118.16;5029199;28;20030;-61
2022/04/29 03:11:29;;;;;;;14.07;7.50;;;;;;;8.03;75.52;103116.31;5028123;28;20041;-62
2022/04/29 03:13:55;;;;;;;13.65;7.45;;;;;;;8.01;75.23;103118.00;5028358;28;20018;-62
2022/04/29 03:16:20;;;;;;;12.40;6.47;;;;;;;7.94;75.47;103127.56;5028293;28;20492;-65
2022/04/29 03:18:45;;;;;;;11.32;6.00;;;;;;;8.05;75.18;103130.34;5029012;28;20170;-62
2022/04/29 03:21:11;;;;;;;11.85;6.15;;;;;;;8.02;75.18;103124.16;5028934;28;20029;-63
2022/04/29 03:23:37;;;;;;;16.45;6.57;;;;;;;7.99;75.48;103121.50;5027484;28;20037;-62
2022/04/29 03:26:04;;;;;;;16.55;6.93;;;;;;;8.00;75.37;103125.91;5028263;28;20053;-62
2022/04/29 03:28:29;;;;;;;11.65;6.30;;;;;;;7.99;75.34;103114.50;5026588;28;20022;-63
2022/04/29 03:30:55;;;;;;;16.90;7.32;;;;;;;8.01;75.49;103118.00;5027716;28;20033;-63
2022/04/29 03:33:20;;;;;;;13.30;6.93;;;;;;;8.01;75.42;103118.00;5028239;28;20025;-67
2022/04/29 03:35:47;;;;;;;11.45;6.97;;;;;;;8.04;75.47;103123.31;5026965;28;20164;-61
2022/04/29 03:38:13;;;;;;;18.73;6.68;;;;;;;7.94;75.64;103116.16;5026830;28;20045;-62
2022/04/29 03:40:39;;;;;;;13.50;6.07;;;;;;;7.95;75.52;103120.59;5028264;28;20037;-64
2022/04/29 03:43:05;;;;;;;17.08;7.47;;;;;;;7.83;75.76;103114.28;5009834;28;20029;-62
2022/04/29 03:45:30;;;;;;;14.45;6.88;;;;;;;7.89;75.97;103117.88;5027535;28;20531;-63
2022/04/29 03:47:56;;;;;;;13.68;6.45;;;;;;;7.89;75.87;103118.72;5028597;28;20097;-61
2022/04/29 03:50:25;;;;;;;18.30;6.43;;;;;;;7.92;75.92;103117.91;5026944;28;20357;-63
2022/04/29 03:52:57;;;;;;;15.48;7.15;;;;;;;7.90;75.81;103109.13;5011486;28;20104;-64
2022/04/29 03:55:25;;;;;;;15.02;7.97;;;;;;;7.96;75.60;103104.84;5022918;28;20069;-62
2022/04/29 03:57:53;;;;;;;12.90;6.93;;;;;;;8.01;75.46;103104.88;5026692;28;20104;-62
2022/04/29 04:00:19;;;;;;;18.17;7.38;;;;;;;7.90;75.76;103106.50;5027570;28;20030;-62
2022/04/29 04:02:44;;;;;;;25.90;7.38;;;;;;;7.86;75.82;103094.19;5026105;28;20025;-62
2022/04/29 04:05:10;;;;;;;17.33;6.40;;;;;;;7.99;75.75;103098.75;5028191;28;20471;-62
2022/04/29 04:07:36;;;;;;;15.43;6.57;;;;;;;7.96;75.59;103088.19;5026304;28;20501;-62
2022/04/29 04:10:02;;;;;;;16.23;6.88;;;;;;;7.91;75.76;103088.13;5007291;28;20049;-62
2022/04/29 04:12:40;;;;;;;12.82;6.07;;;;;;;7.88;76.31;103085.47;5027131;28;20539;-62
2022/04/29 04:15:07;;;;;;;18.35;7.15;;;;;;;7.85;76.40;103082.78;5026280;28;20041;-62
2022/04/29 04:17:32;;;;;;;14.52;6.63;;;;;;;7.74;76.83;103079.16;5021356;28;20082;-63
2022/04/29 04:19:58;;;;;;;13.68;6.70;;;;;;;7.95;76.06;103070.69;5025187;28;20128;-63
2022/04/29 04:22:23;;;;;;;21.13;7.47;;;;;;;7.89;76.26;103070.59;5027592;28;20410;-63
2022/04/29 04:24:48;;;;;;;17.15;7.18;;;;;;;7.88;76.38;103069.72;5027611;28;20025;-63
2022/04/29 04:27:14;;;;;;;20.50;7.05;;;;;;;7.89;76.14;103073.25;5027705;28;20072;-62
2022/04/29 04:29:39;;;;;;;17.50;6.57;;;;;;;7.89;76.42;103081.13;5026630;28;20036;-63
2022/04/29 04:32:05;;;;;;;13.32;7.20;;;;;;;7.86;76.58;103078.44;5027353;28;20090;-62
2022/04/29 04:37:14;;;;;;;17.08;7.20;;;;;;;7.75;77.24;103073.94;5027376;28;20072;-63
2022/04/29 04:39:39;;;;;;;16.85;6.97;;;;;;;7.90;76.64;103078.50;5026172;28;20357;-62
2022/04/29 04:42:05;;;;;;;19.67;7.63;;;;;;;7.84;76.37;103079.31;5025943;28;20108;-62
2022/04/29 04:44:31;;;;;;;27.58;9.52;;;;;;;7.71;76.79;103078.25;5026344;28;20033;-62
2022/04/29 04:46:56;;;;;;;16.23;7.20;;;;;;;7.79;76.79;103078.34;5027048;28;20022;-63
2022/04/29 04:49:22;;;;;;;18.50;7.18;;;;;;;7.78;76.82;103076.59;5026729;28;20519;-62
2022/04/29 04:51:47;;;;;;;20.73;7.05;;;;;;;7.86;77.00;103083.69;5027272;28;20380;-62
2022/04/29 04:54:12;;;;;;;19.95;7.18;;;;;;;7.88;76.57;103079.31;5008947;28;20479;-66
2022/04/29 04:56:38;;;;;;;20.80;7.78;;;;;;;7.77;76.82;103080.06;5026458;28;20372;-62
2022/04/29 04:59:04;;;;;;;19.25;7.88;;;;;;;7.89;76.29;103086.38;5025255;28;20087;-63
2022/04/29 05:01:29;;;;;;;13.77;7.38;;;;;;;7.89;76.13;103081.97;5025415;28;20017;-63
2022/04/29 05:03:54;;;;;;;32.10;8.02;;;;;;;7.85;76.49;103080.16;5025089;28;20488;-62
2022/04/29 05:06:20;;;;;;;9.10;5.85;;;;;;;7.86;76.37;103091.56;5026259;28;20058;-64
2022/04/29 05:08:45;;;;;;;24.33;7.57;;;;;;;7.94;76.29;103098.69;5026593;28;20009;-62
2022/04/29 05:11:11;;;;;;;14.65;6.65;;;;;;;7.91;75.91;103103.88;5023591;28;20046;-63
2022/04/29 05:13:36;;;;;;;14.65;7.10;;;;;;;7.80;76.24;103101.09;5023579;28;20033;-62
2022/04/29 05:16:01;;;;;;;17.10;6.43;;;;;;;7.92;75.55;103110.03;5026601;28;20356;-62
2022/04/29 05:18:27;;;;;;;16.67;7.07;;;;;;;7.88;76.03;103110.81;5025586;28;20056;-63
2022/04/29 05:20:52;;;;;;;17.67;7.20;;;;;;;7.86;76.78;103112.56;5026457;28;20077;-64
2022/04/29 05:23:17;;;;;;;16.77;6.70;;;;;;;7.96;76.18;103112.72;5025358;28;20596;-62
2022/04/29 05:25:43;;;;;;;12.52;6.32;;;;;;;7.93;75.62;103111.78;5025883;28;20140;-63
2022/04/29 05:28:08;;;;;;;18.17;6.03;;;;;;;8.05;75.62;103114.59;5024957;28;20510;-61
2022/04/29 05:30:34;;;;;;;12.32;6.63;;;;;;;8.16;75.66;103111.22;5025865;28;20029;-63
2022/04/29 05:33:00;;;;;;;21.25;6.93;;;;;;;8.19;75.54;103113.88;5025711;28;20049;-61
2022/04/29 05:35:26;;;;;;;14.85;6.07;;;;;;;8.34;75.25;103111.44;5025556;28;20032;-63
2022/04/29 05:37:51;;;;;;;12.73;5.82;;;;;;;8.41;75.02;103108.88;5026960;28;20363;-62
2022/04/29 05:43:02;;;;;;;19.33;6.82;;;;;;;8.56;74.26;103102.97;5026810;28;20055;-63
2022/04/29 05:45:27;;;;;;;14.45;5.70;;;;;;;8.63;74.37;103101.28;5010345;28;20087;-64
2022/04/29 05:47:52;;;;;;;19.52;6.78;;;;;;;8.73;74.08;103105.75;5025667;28;20072;-66
2022/04/29 05:50:18;;;;;;;15.82;6.15;;;;;;;8.75;74.24;103109.28;5026044;28;20024;-61
2022/04/29 05:52:43;;;;;;;15.82;5.88;;;;;;;9.04;73.36;103107.81;5026187;28;20111;-61
2022/04/29 05:55:09;;;;;;;13.18;5.75;;;;;;;8.98;73.16;103108.66;5025406;28;20028;-62
2022/04/29 05:57:34;;;;;;;11.25;5.57;;;;;;;8.96;73.09;103113.00;5007500;28;20034;-62
2022/04/29 05:59:59;;;;;;;12.68;5.40;;;;;;;9.09;72.38;103116.63;5021059;28;20519;-62
2022/04/29 06:02:26;;;;;;;12.55;5.35;;;;;;;9.17;72.29;103114.06;5016077;28;20034;-62
2022/04/29 06:04:51;;;;;;;12.70;5.38;;;;;;;9.35;71.81;103123.88;5023502;28;20018;-64
2022/04/29 06:07:17;;;;;;;17.77;6.25;;;;;;;9.27;72.02;103121.16;5027837;28;20028;-64
2022/04/29 06:09:42;;;;;;;18.90;6.03;;;;;;;9.18;71.99;103113.22;5028961;28;20056;-64
2022/04/29 06:12:08;;;;;;;13.88;5.85;;;;;;;9.20;72.05;103114.09;5029475;28;20033;-66
2022/04/29 06:14:38;;;;;;;15.20;5.22;;;;;;;9.29;71.80;103121.19;5028988;28;20021;-67
2022/04/29 06:17:03;;;;;;;;;;;;;;;9.44;71.35;103118.69;5019335;28;20476;-63
2022/04/29 06:19:28;;;;;;;16.45;5.70;;;;;;;9.52;70.87;103125.75;5011277;28;19924;-64
2022/04/29 06:21:54;;;;;;;18.92;6.57;;;;;;;9.21;71.73;103119.38;5029723;28;20152;-64
2022/04/29 06:24:19;;;;;;;14.32;5.72;;;;;;;9.45;71.23;103120.44;5011448;28;20087;-60
2022/04/29 06:26:45;;;;;;;12.93;4.95;;;;;;;9.54;70.50;103130.16;5010805;28;20029;-59
2022/04/29 06:29:10;;;;;;;11.65;4.93;;;;;;;9.54;71.28;103134.56;5025690;28;20040;-63
2022/04/29 06:31:35;;;;;;;15.70;5.70;;;;;;;9.55;70.60;103126.66;5029632;28;20033;-63
2022/04/29 06:34:01;;;;;;;14.35;5.85;;;;;;;9.69;70.73;103118.84;5028592;28;20526;-64
2022/04/29 06:36:26;;;;;;;15.68;5.75;;;;;;;9.83;70.23;103124.22;5029754;28;20030;-65
2022/04/29 06:38:51;;;;;;;16.38;6.20;;;;;;;9.78;70.26;103135.59;5029579;28;20037;-64
2022/04/29 06:41:17;;;;;;;15.18;5.85;;;;;;;9.92;70.02;103141.81;5029300;28;20033;-63
2022/04/29 06:43:42;;;;;;;15.40;5.45;;;;;;;10.12;69.14;103141.03;5029047;28;20029;-63
2022/04/29 06:46:09;;;;;;;17.13;5.75;;;;;;;10.07;69.19;103141.03;5028002;28;20029;-63
2022/04/29 06:48:34;;;;;;;18.35;5.70;;;;;;;9.90;69.67;103140.91;5027863;28;20099;-62
2022/04/29 06:50:59;;;;;;;14.88;5.32;;;;;;;10.23;68.83;103146.34;5028808;28;20080;-63
2022/04/29 06:53:25;;;;;;;14.60;5.35;;;;;;;10.21;68.36;103148.13;5028210;28;20036;-62
2022/04/29 06:55:50;;;;;;;11.00;5.82;;;;;;;9.90;68.61;103142.69;5029586;28;20037;-62
2022/04/29 06:58:15;;;;;;;13.80;5.63;;;;;;;10.06;68.98;103148.91;5027562;28;20120;-64
2022/04/29 07:00:42;;;;;;;13.32;5.35;;;;;;;10.28;68.48;103149.91;5027868;28;20117;-62
2022/04/29 07:03:08;;;;;;;11.00;5.05;;;;;;;10.23;68.18;103152.50;5028308;28;20061;-61
2022/04/29 07:05:37;;;;;;;13.32;5.85;;;;;;;10.42;68.40;103156.97;5028638;28;20056;-61
2022/04/29 07:08:02;;;;;;;14.52;5.65;;;;;;;10.71;66.99;103164.13;5028441;28;20029;-62
2022/04/29 07:10:28;;;;;;;17.00;5.47;;;;;;;10.50;68.14;103165.81;5027633;28;20061;-62
2022/04/29 07:12:53;;;;;;;15.45;5.40;;;;;;;10.25;68.63;103152.53;5028457;28;20022;-61
2022/04/29 07:15:21;;;;;;;19.48;5.32;;;;;;;10.31;68.37;103149.91;5028140;28;20048;-62
2022/04/29 07:17:46;;;;;;;9.48;4.90;;;;;;;10.35;68.25;103154.31;5014292;28;20025;-64
2022/04/29 07:20:13;;;;;;;19.15;6.22;;;;;;;10.20;68.94;103155.13;4991283;28;20044;-63
2022/04/29 07:22:40;;;;;;;15.38;6.25;;;;;;;10.54;68.28;103159.69;5021893;28;20036;-68
2022/04/29 07:25:07;;;;;;;14.95;5.97;;;;;;;10.62;67.84;103154.44;5027762;28;20044;-73
2022/04/29 07:27:32;;;;;;;13.15;5.57;;;;;;;10.41;68.20;103142.91;5007086;28;20017;-69
2022/04/29 07:29:58;;;;;;;12.50;5.32;;;;;;;10.58;67.36;103140.38;5026562;28;20071;-67
2022/04/29 07:32:25;;;;;;;14.00;4.93;;;;;;;10.34;67.20;103127.97;5026725;28;21295;-68
2022/04/29 07:43:03;;;;;;;18.98;5.45;;;;;;;10.39;68.14;103136.78;5028085;28;20064;-69
2022/04/29 07:45:28;;;;;;;17.63;5.22;;;;;;;10.60;67.94;103130.69;5026445;28;20025;-68
2022/04/29 07:47:56;;;;;;;23.70;6.03;;;;;;;10.59;67.67;103128.94;5027724;28;20112;-68
2022/04/29 07:50:21;;;;;;;14.15;5.53;;;;;;;10.63;67.58;103137.75;5026211;28;20033;-69
2022/04/29 07:52:46;;;;;;;12.35;4.97;;;;;;;10.71;67.08;103130.75;5027424;28;20037;-70
2022/04/29 07:55:12;;;;;;;10.18;6.05;;;;;;;10.86;67.33;103135.16;5027599;28;20455;-65
2022/04/29 07:57:37;;;;;;;13.82;5.53;;;;;;;11.12;67.05;103131.69;5026435;28;20424;-63
2022/04/29 08:00:04;;;;;;;16.92;6.68;;;;;;;10.82;67.21;103125.50;5028351;28;20119;-64
2022/04/29 08:03:27;;;;;;;18.65;5.65;;;;;;;10.76;67.42;103122.84;5104637;27;20396;-63
2022/04/29 08:05:53;;;;;;;17.95;6.10;;;;;;;10.81;67.05;103131.63;5103635;28;20031;-63
2022/04/29 08:08:19;;;;;;;12.23;5.68;;;;;;;10.86;67.06;103137.81;5102383;28;20102;-63
2022/04/29 08:10:45;;;;;;;16.23;6.50;;;;;;;10.67;67.47;103141.28;5084259;28;20064;-65
2022/04/29 08:13:11;;;;;;;17.25;5.85;;;;;;;10.68;67.88;103146.56;5081634;28;20024;-66
2022/04/29 08:15:36;;;;;;;16.15;6.05;;;;;;;10.68;67.88;103143.91;5083923;28;20355;-68
2022/04/29 08:18:03;;;;;;;14.18;6.15;;;;;;;10.74;67.37;103140.41;5099527;28;20370;-64
2022/04/29 08:20:28;;;;;;;18.05;6.30;;;;;;;10.99;67.66;103141.34;5104128;28;20053;-64
2022/04/29 08:22:53;;;;;;;17.05;6.40;;;;;;;10.60;67.66;103149.16;5103536;28;20027;-64
2022/04/29 08:25:19;;;;;;;12.18;6.07;;;;;;;10.69;66.70;103152.72;5093423;28;20562;-64
2022/04/29 08:27:46;;;;;;;12.43;6.10;;;;;;;10.56;68.48;103150.03;5083487;28;20107;-65
2022/04/29 08:30:12;;;;;;;13.93;5.70;;;;;;;10.61;66.96;103148.31;5097587;28;20077;-68
2022/04/29 08:32:42;;;;;;;19.83;6.45;;;;;;;10.76;67.02;103151.84;5102468;28;20028;-68
2022/04/29 08:35:09;;;;;;;16.08;6.53;;;;;;;10.78;66.81;103150.13;5103857;28;20094;-68
2022/04/29 08:37:35;;;;;;;17.05;6.35;;;;;;;10.99;67.05;103146.63;5102365;28;20534;-70
2022/04/29 08:40:00;;;;;;;18.95;5.72;;;;;;;11.27;65.77;103144.88;5103006;28;20028;-66
2022/04/29 08:42:27;;;;;;;9.60;5.57;;;;;;;11.41;64.57;103144.88;5101663;28;20028;-65
2022/04/29 08:44:53;;;;;;;13.90;5.70;;;;;;;11.33;64.72;103143.13;5102914;28;20065;-66
2022/04/29 08:47:18;;;;;;;16.35;5.80;;;;;;;11.18;65.14;103149.28;5103851;28;20024;-69
2022/04/29 08:49:44;;;;;;;10.50;5.22;;;;;;;11.12;65.60;103155.44;5100710;28;20038;-70
2022/04/29 08:52:10;;;;;;;10.80;5.40;;;;;;;11.29;65.46;103157.19;5102249;28;20111;-70
2022/04/29 09:00:04;;;;;;;15.77;4.50;;;;;;;11.48;64.70;103157.19;5082228;28;20042;-70
2022/04/29 09:02:38;;;;;;;13.20;4.70;;;;;;;11.60;63.72;103165.13;5088202;28;20036;-64
2022/04/29 09:05:06;;;;;;;16.02;5.45;;;;;;;11.25;64.18;103161.59;5100666;28;20032;-64
2022/04/29 09:08:00;;;;;;;9.98;4.97;;;;;;;11.10;64.96;103166.84;5082787;28;20027;-65
2022/04/29 09:10:29;;;;;;;9.73;4.95;;;;;;;11.21;64.50;103167.75;5100873;27;20031;-63
2022/04/29 09:12:55;;;;;;;9.27;4.63;;;;;;;11.47;64.65;103166.00;5099751;28;20048;-73
2022/04/29 09:15:21;;;;;;;13.07;4.88;;;;;;;11.68;63.43;103162.44;5085291;28;20036;-67
2022/04/29 09:17:48;;;;;;;11.70;4.65;;;;;;;12.06;63.03;103171.19;5068602;28;20099;-65
2022/04/29 09:20:19;;;;;;;11.65;4.60;;;;;;;11.75;62.93;103168.63;5068570;28;20029;-65
2022/04/29 09:22:49;;;;;;;11.40;4.30;;;;;;;12.08;62.13;103169.47;5083111;28;20032;-66
2022/04/29 09:25:16;;;;;;;11.98;4.43;;;;;;;12.10;62.88;103162.41;5070275;28;20033;-65
2022/04/29 09:28:01;;;;;;;11.75;4.40;;;;;;;12.16;61.83;103150.06;5085860;28;20036;-65
2022/04/29 09:30:38;;;;;;;10.40;4.63;;;;;;;11.70;63.27;103149.25;5088298;28;20028;-65
2022/04/29 09:33:05;;;;;;;12.75;4.80;;;;;;;11.61;63.63;103143.13;5073512;28;20051;-66
2022/04/29 09:35:37;;;;;;;11.13;5.22;;;;;;;11.69;64.02;103145.75;5054441;28;20541;-66
2022/04/29 09:40:51;;;;;;;21.13;5.10;;;;;;;12.05;62.18;103143.03;5067453;28;20071;-67
2022/04/29 09:43:16;;;;;;;9.85;3.95;;;;;;;12.25;61.56;103142.09;5053262;28;20036;-64
2022/04/29 09:45:42;;;;;;;15.18;4.63;;;;;;;11.88;63.12;103127.19;5047312;28;20525;-66
2022/04/29 09:48:10;;;;;;;12.20;5.20;;;;;;;12.22;62.15;103124.47;5048029;28;20039;-68
2022/04/29 09:50:50;;;;;;;14.23;5.18;;;;;;;11.84;63.07;103128.09;5061016;28;20542;-66
2022/04/29 09:53:20;;;;;;;9.20;4.03;;;;;;;12.20;62.93;103128.91;5067594;28;20101;-67
2022/04/29 09:56:05;;;;;;;13.63;4.40;;;;;;;12.28;61.01;103139.44;5067777;28;20386;-68
2022/04/29 09:58:31;;;;;;;8.10;3.92;;;;;;;11.79;62.51;103146.59;5052945;28;20055;-65
2022/04/29 10:00:56;;;;;;;14.77;4.97;;;;;;;11.89;63.04;103150.09;5083022;28;20474;-67
2022/04/29 10:03:23;;;;;;;10.60;4.00;;;;;;;11.91;61.97;103153.63;5090713;27;20127;-72
2022/04/29 10:05:49;;;;;;;15.00;4.32;;;;;;;11.98;61.65;103146.56;5063882;28;20099;-65
2022/04/29 10:08:15;;;;;;;11.43;4.15;;;;;;;12.05;62.71;103145.66;5068473;28;20048;-67
2022/04/29 10:10:41;;;;;;;10.77;4.22;;;;;;;12.33;61.50;103140.31;5067386;28;20070;-71
2022/04/29 10:13:07;;;;;;;9.65;3.90;;;;;;;11.87;61.82;103152.72;5091512;27;20024;-68
2022/04/29 10:15:36;;;;;;;9.95;4.20;;;;;;;11.82;62.67;103148.34;5049556;28;20024;-67
2022/04/29 10:23:32;;;;;;;9.35;4.30;;;;;;;12.31;62.07;103133.28;5063590;28;20116;-65
2022/04/29 10:25:57;;;;;;;13.73;4.15;;;;;;;12.37;61.57;103139.41;5063780;28;20027;-67
2022/04/29 10:28:24;;;;;;;9.57;4.35;;;;;;;12.55;61.76;103137.53;5098663;27;20028;-67
2022/04/29 10:31:05;;;;;;;15.93;4.20;;;;;;;12.43;61.35;103132.34;5053689;28;20041;-65
2022/04/29 10:33:30;;;;;;;12.13;4.93;;;;;;;12.43;61.48;103121.75;5046782;28;20064;-66
2022/04/29 10:35:58;;;;;;;12.90;4.45;;;;;;;12.59;60.46;103131.38;5052500;28;20525;-65
2022/04/29 10:38:31;;;;;;;12.07;4.35;;;;;;;12.59;60.45;103133.13;5065308;28;20047;-65
2022/04/29 10:41:15;;;;;;;12.57;4.70;;;;;;;12.53;59.99;103128.75;5062557;28;20374;-68
2022/04/29 10:43:52;;;;;;;7.95;4.40;;;;;;;12.18;61.73;103128.03;5065265;28;20673;-72
2022/04/29 10:46:30;;;;;;;11.63;4.90;;;;;;;12.60;59.76;103133.13;5064266;28;20851;-74
2022/04/29 10:48:55;;;;;;;13.90;4.68;;;;;;;12.85;59.35;103138.25;5065441;28;20032;-72
2022/04/29 10:51:44;;;;;;;13.27;4.72;;;;;;;12.76;59.02;103140.94;5064696;28;20039;-70
2022/04/29 10:54:11;;;;;;;11.13;4.43;;;;;;;13.01;59.17;103130.22;5064313;28;20063;-74
2022/04/29 10:56:37;;;;;;;12.35;4.97;;;;;;;13.02;59.41;103127.56;5062507;28;20474;-70
2022/04/29 10:59:12;;;;;;;10.13;4.65;;;;;;;13.03;59.27;103120.47;5065508;28;20016;-68
2022/04/29 11:01:39;;;;;;;10.10;4.60;;;;;;;13.48;59.18;103122.75;5063340;28;20132;-72
2022/04/29 11:04:14;;;;;;;10.80;4.40;;;;;;;13.36;58.58;103122.84;5065606;28;20124;-71
2022/04/29 11:06:42;;;;;;;6.32;3.85;;;;;;;13.62;58.49;103133.25;5061177;28;20161;-68
2022/04/29 11:09:30;;;;;;;6.72;4.72;;;;;;;13.54;57.87;103143.03;5082252;28;20532;-68
2022/04/29 11:11:56;;;;;;;8.15;4.03;;;;;;;13.56;57.56;103143.91;5083939;28;20062;-72
2022/04/29 11:14:21;;;;;;;9.18;4.57;;;;;;;13.75;56.85;103144.59;5084988;28;20098;-64
2022/04/29 11:16:52;;;;;;;9.38;4.32;;;;;;;14.03;55.42;103138.13;5084852;28;20099;-65
2022/04/29 11:19:40;;;;;;;13.25;4.82;;;;;;;13.18;57.28;103132.72;5086789;28;20028;-64
2022/04/29 11:24:52;;;;;;;11.35;4.07;;;;;;;13.73;55.76;103129.63;5086808;28;20085;-63
2022/04/29 11:27:29;;;;;;;11.82;4.50;;;;;;;13.86;55.07;103120.63;5084172;28;20062;-65
2022/04/29 11:29:56;;;;;;;7.20;4.00;;;;;;;14.17;54.73;103131.78;5084746;28;20532;-65
2022/04/29 11:32:25;;;;;;;7.53;4.30;;;;;;;14.52;54.20;103119.81;5077861;28;20126;-65
2022/04/29 11:34:52;;;;;;;9.45;3.63;;;;;;;15.08;53.93;103128.75;5083330;28;20032;-64
2022/04/29 11:37:33;;;;;;;8.32;3.90;;;;;;;15.11;54.53;103132.22;5083673;28;20028;-66
2022/04/29 11:40:04;;;;;;;5.57;3.63;;;;;;;14.67;53.79;103126.69;5084914;28;20062;-64
2022/04/29 11:42:30;;;;;;;4.10;3.63;;;;;;;14.28;53.08;103128.09;5085189;28;20032;-65
2022/04/29 11:45:03;;;;;;;10.18;3.50;;;;;;;13.86;54.17;103127.69;5086024;28;20355;-66
2022/04/29 11:47:32;;;;;;;7.65;3.67;;;;;;;14.39;52.76;103127.94;5083860;28;20020;-68
2022/04/29 11:49:57;;;;;;;9.27;3.70;;;;;;;14.09;54.00;103132.72;5083227;28;20050;-66
2022/04/29 11:52:24;;;;;;;9.02;4.00;;;;;;;14.30;54.79;103125.38;5086060;28;20028;-63
2022/04/29 11:54:58;;;;;;;6.80;3.55;;;;;;;14.82;53.02;103130.03;5085949;28;20134;-67